sensor_id;sensor_type;location;lat;lon;timestamp;P1;durP1;ratioP1;P2;durP2;ratioP2
75297;SDS011;63896;45.990;18.688;2022-11-20T00:02:09;31.27;;;11.57;;
75297;SDS011;63896;45.990;18.688;2022-11-20T00:05:12;29.60;;;12.23;;
75297;SDS011;63896;45.990;18.688;2022-11-20T00:08:15;31.88;;;12.38;;
75297;SDS011;63896;45.990;18.688;2022-11-20T00:11:18;29.13;;;13.20;;
75297;SDS011;63896;45.990;18.688;2022-11-20T00:14:23;30.08;;;12.00;;
75297;SDS011;63896;45.990;18.688;2022-11-20T00:17:26;34.20;;;13.73;;
75297;SDS011;63896;45.990;18.688;2022-11-20T00:20:29;33.20;;;12.27;;
75297;SDS011;63896;45.990;18.688;2022-11-20T00:23:32;33.05;;;13.10;;
75297;SDS011;63896;45.990;18.688;2022-11-20T00:26:35;31.33;;;12.23;;
75297;SDS011;63896;45.990;18.688;2022-11-20T00:29:38;27.20;;;11.65;;
75297;SDS011;63896;45.990;18.688;2022-11-20T00:32:42;29.42;;;11.02;;
75297;SDS011;63896;45.990;18.688;2022-11-20T00:35:44;32.03;;;12.25;;
75297;SDS011;63896;45.990;18.688;2022-11-20T00:38:50;31.70;;;11.68;;
75297;SDS011;63896;45.990;18.688;2022-11-20T00:41:57;31.87;;;12.73;;
75297;SDS011;63896;45.990;18.688;2022-11-20T00:44:59;31.40;;;11.93;;
75297;SDS011;63896;45.990;18.688;2022-11-20T00:48:03;33.05;;;13.07;;
75297;SDS011;63896;45.990;18.688;2022-11-20T00:51:06;32.67;;;12.95;;
75297;SDS011;63896;45.990;18.688;2022-11-20T00:54:09;32.78;;;13.10;;
75297;SDS011;63896;45.990;18.688;2022-11-20T00:57:12;34.27;;;13.43;;
75297;SDS011;63896;45.990;18.688;2022-11-20T01:00:15;35.70;;;11.63;;
75297;SDS011;63896;45.990;18.688;2022-11-20T01:03:18;34.03;;;11.98;;
75297;SDS011;63896;45.990;18.688;2022-11-20T01:06:35;34.00;;;12.60;;
75297;SDS011;63896;45.990;18.688;2022-11-20T01:09:39;36.20;;;13.43;;
75297;SDS011;63896;45.990;18.688;2022-11-20T01:12:42;33.43;;;13.17;;
75297;SDS011;63896;45.990;18.688;2022-11-20T01:15:45;34.55;;;14.20;;
75297;SDS011;63896;45.990;18.688;2022-11-20T01:18:49;32.10;;;13.75;;
75297;SDS011;63896;45.990;18.688;2022-11-20T01:21:53;34.80;;;13.18;;
75297;SDS011;63896;45.990;18.688;2022-11-20T01:24:57;36.17;;;13.32;;
75297;SDS011;63896;45.990;18.688;2022-11-20T01:28:00;32.27;;;13.07;;
75297;SDS011;63896;45.990;18.688;2022-11-20T01:31:10;33.22;;;13.50;;
75297;SDS011;63896;45.990;18.688;2022-11-20T01:34:16;34.38;;;13.65;;
75297;SDS011;63896;45.990;18.688;2022-11-20T01:37:20;35.75;;;14.02;;
75297;SDS011;63896;45.990;18.688;2022-11-20T01:40:23;38.08;;;14.30;;
75297;SDS011;63896;45.990;18.688;2022-11-20T01:43:26;34.23;;;12.70;;
75297;SDS011;63896;45.990;18.688;2022-11-20T01:46:31;35.53;;;12.88;;
75297;SDS011;63896;45.990;18.688;2022-11-20T01:49:38;35.50;;;13.13;;
75297;SDS011;63896;45.990;18.688;2022-11-20T01:52:54;35.97;;;13.77;;
75297;SDS011;63896;45.990;18.688;2022-11-20T01:56:05;35.45;;;12.48;;
75297;SDS011;63896;45.990;18.688;2022-11-20T01:59:13;39.37;;;12.83;;
75297;SDS011;63896;45.990;18.688;2022-11-20T02:02:19;35.03;;;12.55;;
75297;SDS011;63896;45.990;18.688;2022-11-20T02:08:55;35.65;;;13.40;;
75297;SDS011;63896;45.990;18.688;2022-11-20T02:11:58;36.45;;;12.88;;
75297;SDS011;63896;45.990;18.688;2022-11-20T02:15:02;31.73;;;11.97;;
75297;SDS011;63896;45.990;18.688;2022-11-20T02:18:05;31.10;;;12.52;;
75297;SDS011;63896;45.990;18.688;2022-11-20T02:21:21;38.28;;;15.13;;
75297;SDS011;63896;45.990;18.688;2022-11-20T02:24:44;33.22;;;12.70;;
75297;SDS011;63896;45.990;18.688;2022-11-20T02:27:50;35.10;;;12.80;;
75297;SDS011;63896;45.990;18.688;2022-11-20T02:30:53;37.13;;;13.87;;
75297;SDS011;63896;45.990;18.688;2022-11-20T02:33:56;37.05;;;12.95;;
75297;SDS011;63896;45.990;18.688;2022-11-20T02:36:59;33.25;;;13.35;;
75297;SDS011;63896;45.990;18.688;2022-11-20T02:40:02;38.45;;;13.98;;
75297;SDS011;63896;45.990;18.688;2022-11-20T02:43:05;36.85;;;14.15;;
75297;SDS011;63896;45.990;18.688;2022-11-20T02:46:08;35.33;;;14.20;;
75297;SDS011;63896;45.990;18.688;2022-11-20T02:49:12;38.58;;;14.77;;
75297;SDS011;63896;45.990;18.688;2022-11-20T02:52:15;41.15;;;14.30;;
75297;SDS011;63896;45.990;18.688;2022-11-20T02:55:17;37.55;;;13.60;;
75297;SDS011;63896;45.990;18.688;2022-11-20T02:58:20;38.85;;;13.57;;
75297;SDS011;63896;45.990;18.688;2022-11-20T03:01:25;39.13;;;13.53;;
75297;SDS011;63896;45.990;18.688;2022-11-20T03:04:28;38.65;;;13.02;;
75297;SDS011;63896;45.990;18.688;2022-11-20T03:07:31;37.72;;;13.55;;
75297;SDS011;63896;45.990;18.688;2022-11-20T03:10:33;38.95;;;13.85;;
75297;SDS011;63896;45.990;18.688;2022-11-20T03:13:36;35.70;;;12.40;;
75297;SDS011;63896;45.990;18.688;2022-11-20T03:16:39;34.07;;;12.47;;
75297;SDS011;63896;45.990;18.688;2022-11-20T03:19:42;37.00;;;13.00;;
75297;SDS011;63896;45.990;18.688;2022-11-20T03:22:45;36.70;;;12.07;;
75297;SDS011;63896;45.990;18.688;2022-11-20T03:25:48;38.45;;;13.40;;
75297;SDS011;63896;45.990;18.688;2022-11-20T03:28:52;40.42;;;13.43;;
75297;SDS011;63896;45.990;18.688;2022-11-20T03:31:57;31.33;;;10.77;;
75297;SDS011;63896;45.990;18.688;2022-11-20T03:35:00;32.38;;;11.63;;
75297;SDS011;63896;45.990;18.688;2022-11-20T03:38:03;36.67;;;12.52;;
75297;SDS011;63896;45.990;18.688;2022-11-20T03:41:10;33.22;;;11.90;;
75297;SDS011;63896;45.990;18.688;2022-11-20T03:44:14;36.00;;;12.32;;
75297;SDS011;63896;45.990;18.688;2022-11-20T03:47:17;33.23;;;12.00;;
75297;SDS011;63896;45.990;18.688;2022-11-20T03:50:20;36.80;;;12.43;;
75297;SDS011;63896;45.990;18.688;2022-11-20T03:53:23;28.30;;;10.70;;
75297;SDS011;63896;45.990;18.688;2022-11-20T03:56:26;31.60;;;10.95;;
75297;SDS011;63896;45.990;18.688;2022-11-20T03:59:31;26.95;;;10.30;;
75297;SDS011;63896;45.990;18.688;2022-11-20T04:02:34;34.83;;;11.67;;
75297;SDS011;63896;45.990;18.688;2022-11-20T04:05:37;31.33;;;11.48;;
75297;SDS011;63896;45.990;18.688;2022-11-20T04:08:40;33.05;;;11.35;;
75297;SDS011;63896;45.990;18.688;2022-11-20T04:11:43;36.75;;;12.45;;
75297;SDS011;63896;45.990;18.688;2022-11-20T04:14:46;33.45;;;11.65;;
75297;SDS011;63896;45.990;18.688;2022-11-20T04:17:49;32.13;;;12.50;;
75297;SDS011;63896;45.990;18.688;2022-11-20T04:20:52;33.80;;;11.85;;
75297;SDS011;63896;45.990;18.688;2022-11-20T04:23:55;30.35;;;11.68;;
75297;SDS011;63896;45.990;18.688;2022-11-20T04:26:59;31.42;;;11.10;;
75297;SDS011;63896;45.990;18.688;2022-11-20T04:30:02;36.90;;;11.68;;
75297;SDS011;63896;45.990;18.688;2022-11-20T04:33:05;39.27;;;11.93;;
75297;SDS011;63896;45.990;18.688;2022-11-20T04:36:13;33.78;;;11.82;;
75297;SDS011;63896;45.990;18.688;2022-11-20T04:39:20;35.78;;;13.15;;
75297;SDS011;63896;45.990;18.688;2022-11-20T04:42:24;32.25;;;11.80;;
75297;SDS011;63896;45.990;18.688;2022-11-20T04:45:33;29.38;;;11.23;;
75297;SDS011;63896;45.990;18.688;2022-11-20T04:48:35;41.77;;;12.30;;
75297;SDS011;63896;45.990;18.688;2022-11-20T04:51:38;33.83;;;12.18;;
75297;SDS011;63896;45.990;18.688;2022-11-20T04:54:41;35.97;;;12.27;;
75297;SDS011;63896;45.990;18.688;2022-11-20T04:57:44;38.97;;;12.90;;
75297;SDS011;63896;45.990;18.688;2022-11-20T05:00:46;36.22;;;13.50;;
75297;SDS011;63896;45.990;18.688;2022-11-20T05:03:50;33.60;;;11.83;;
75297;SDS011;63896;45.990;18.688;2022-11-20T05:06:53;32.08;;;11.02;;
75297;SDS011;63896;45.990;18.688;2022-11-20T05:09:55;34.58;;;12.10;;
75297;SDS011;63896;45.990;18.688;2022-11-20T05:12:58;32.47;;;11.45;;
75297;SDS011;63896;45.990;18.688;2022-11-20T05:16:05;35.60;;;12.20;;
75297;SDS011;63896;45.990;18.688;2022-11-20T05:19:10;37.43;;;12.40;;
75297;SDS011;63896;45.990;18.688;2022-11-20T05:22:13;34.65;;;12.55;;
75297;SDS011;63896;45.990;18.688;2022-11-20T05:25:16;36.88;;;12.15;;
75297;SDS011;63896;45.990;18.688;2022-11-20T05:28:19;34.13;;;12.43;;
75297;SDS011;63896;45.990;18.688;2022-11-20T05:31:23;33.92;;;11.43;;
75297;SDS011;63896;45.990;18.688;2022-11-20T05:34:29;36.80;;;12.27;;
75297;SDS011;63896;45.990;18.688;2022-11-20T05:37:32;35.55;;;12.48;;
75297;SDS011;63896;45.990;18.688;2022-11-20T05:40:35;32.83;;;11.95;;
75297;SDS011;63896;45.990;18.688;2022-11-20T05:43:39;31.23;;;11.70;;
75297;SDS011;63896;45.990;18.688;2022-11-20T05:46:43;37.92;;;13.93;;
75297;SDS011;63896;45.990;18.688;2022-11-20T05:49:46;41.93;;;12.33;;
75297;SDS011;63896;45.990;18.688;2022-11-20T05:52:48;35.80;;;13.38;;
75297;SDS011;63896;45.990;18.688;2022-11-20T05:59:01;30.85;;;11.75;;
75297;SDS011;63896;45.990;18.688;2022-11-20T06:02:04;34.83;;;12.93;;
75297;SDS011;63896;45.990;18.688;2022-11-20T06:05:07;32.77;;;12.93;;
75297;SDS011;63896;45.990;18.688;2022-11-20T06:08:10;31.00;;;11.57;;
75297;SDS011;63896;45.990;18.688;2022-11-20T06:11:13;28.42;;;10.20;;
75297;SDS011;63896;45.990;18.688;2022-11-20T06:14:18;36.75;;;12.95;;
75297;SDS011;63896;45.990;18.688;2022-11-20T06:17:20;34.80;;;12.77;;
75297;SDS011;63896;45.990;18.688;2022-11-20T06:20:23;30.83;;;11.03;;
75297;SDS011;63896;45.990;18.688;2022-11-20T06:23:27;30.33;;;10.82;;
75297;SDS011;63896;45.990;18.688;2022-11-20T06:26:31;30.67;;;11.48;;
75297;SDS011;63896;45.990;18.688;2022-11-20T06:29:34;30.40;;;10.93;;
75297;SDS011;63896;45.990;18.688;2022-11-20T06:32:37;34.90;;;11.60;;
75297;SDS011;63896;45.990;18.688;2022-11-20T06:35:39;33.77;;;12.07;;
75297;SDS011;63896;45.990;18.688;2022-11-20T06:38:42;30.58;;;12.15;;
75297;SDS011;63896;45.990;18.688;2022-11-20T06:41:45;32.05;;;11.43;;
75297;SDS011;63896;45.990;18.688;2022-11-20T06:44:48;35.30;;;12.73;;
75297;SDS011;63896;45.990;18.688;2022-11-20T06:47:51;35.33;;;12.68;;
75297;SDS011;63896;45.990;18.688;2022-11-20T06:50:54;27.83;;;9.27;;
75297;SDS011;63896;45.990;18.688;2022-11-20T06:53:58;33.47;;;12.02;;
75297;SDS011;63896;45.990;18.688;2022-11-20T06:57:00;32.33;;;11.60;;
75297;SDS011;63896;45.990;18.688;2022-11-20T07:00:03;29.13;;;11.35;;
75297;SDS011;63896;45.990;18.688;2022-11-20T07:03:07;28.88;;;11.35;;
75297;SDS011;63896;45.990;18.688;2022-11-20T07:06:12;34.27;;;12.27;;
75297;SDS011;63896;45.990;18.688;2022-11-20T07:09:14;30.65;;;11.70;;
75297;SDS011;63896;45.990;18.688;2022-11-20T07:12:18;31.90;;;12.57;;
75297;SDS011;63896;45.990;18.688;2022-11-20T07:15:22;27.63;;;10.80;;
75297;SDS011;63896;45.990;18.688;2022-11-20T07:18:26;27.85;;;10.65;;
75297;SDS011;63896;45.990;18.688;2022-11-20T07:21:28;24.77;;;10.80;;
75297;SDS011;63896;45.990;18.688;2022-11-20T07:24:31;29.17;;;10.85;;
75297;SDS011;63896;45.990;18.688;2022-11-20T07:27:34;29.50;;;11.52;;
75297;SDS011;63896;45.990;18.688;2022-11-20T07:30:37;30.75;;;11.60;;
75297;SDS011;63896;45.990;18.688;2022-11-20T07:33:40;25.55;;;10.98;;
75297;SDS011;63896;45.990;18.688;2022-11-20T07:36:43;29.40;;;11.47;;
75297;SDS011;63896;45.990;18.688;2022-11-20T07:39:45;26.70;;;10.80;;
75297;SDS011;63896;45.990;18.688;2022-11-20T07:45:54;25.85;;;10.65;;
75297;SDS011;63896;45.990;18.688;2022-11-20T07:48:58;29.90;;;11.10;;
75297;SDS011;63896;45.990;18.688;2022-11-20T07:52:01;28.90;;;11.40;;
75297;SDS011;63896;45.990;18.688;2022-11-20T07:55:07;29.40;;;10.93;;
75297;SDS011;63896;45.990;18.688;2022-11-20T07:58:11;25.70;;;10.93;;
75297;SDS011;63896;45.990;18.688;2022-11-20T08:01:14;29.90;;;10.85;;
75297;SDS011;63896;45.990;18.688;2022-11-20T08:04:17;27.20;;;10.52;;
75297;SDS011;63896;45.990;18.688;2022-11-20T08:07:19;29.60;;;11.33;;
75297;SDS011;63896;45.990;18.688;2022-11-20T08:10:22;25.40;;;10.70;;
75297;SDS011;63896;45.990;18.688;2022-11-20T08:13:25;29.75;;;12.23;;
75297;SDS011;63896;45.990;18.688;2022-11-20T08:16:47;24.77;;;9.00;;
75297;SDS011;63896;45.990;18.688;2022-11-20T08:19:51;26.67;;;9.93;;
75297;SDS011;63896;45.990;18.688;2022-11-20T08:22:57;23.13;;;9.20;;
75297;SDS011;63896;45.990;18.688;2022-11-20T08:26:01;24.40;;;9.75;;
75297;SDS011;63896;45.990;18.688;2022-11-20T08:29:05;25.83;;;9.25;;
75297;SDS011;63896;45.990;18.688;2022-11-20T08:32:08;24.65;;;9.63;;
75297;SDS011;63896;45.990;18.688;2022-11-20T08:35:10;28.08;;;10.68;;
75297;SDS011;63896;45.990;18.688;2022-11-20T08:38:13;25.87;;;9.53;;
75297;SDS011;63896;45.990;18.688;2022-11-20T08:41:16;30.00;;;11.45;;
75297;SDS011;63896;45.990;18.688;2022-11-20T08:44:33;28.42;;;11.23;;
75297;SDS011;63896;45.990;18.688;2022-11-20T08:47:35;28.48;;;10.38;;
75297;SDS011;63896;45.990;18.688;2022-11-20T08:50:38;24.98;;;9.55;;
75297;SDS011;63896;45.990;18.688;2022-11-20T08:53:41;22.83;;;9.73;;
75297;SDS011;63896;45.990;18.688;2022-11-20T08:56:44;24.65;;;10.05;;
75297;SDS011;63896;45.990;18.688;2022-11-20T08:59:47;24.98;;;9.48;;
75297;SDS011;63896;45.990;18.688;2022-11-20T09:03:07;26.05;;;10.57;;
75297;SDS011;63896;45.990;18.688;2022-11-20T09:06:10;23.90;;;10.30;;
75297;SDS011;63896;45.990;18.688;2022-11-20T09:09:12;26.63;;;11.23;;
75297;SDS011;63896;45.990;18.688;2022-11-20T09:12:15;24.92;;;12.85;;
75297;SDS011;63896;45.990;18.688;2022-11-20T09:15:18;21.30;;;9.88;;
75297;SDS011;63896;45.990;18.688;2022-11-20T09:18:21;24.73;;;11.55;;
75297;SDS011;63896;45.990;18.688;2022-11-20T09:21:25;27.50;;;11.40;;
75297;SDS011;63896;45.990;18.688;2022-11-20T09:24:27;27.10;;;10.77;;
75297;SDS011;63896;45.990;18.688;2022-11-20T09:27:30;25.73;;;10.82;;
75297;SDS011;63896;45.990;18.688;2022-11-20T09:30:33;25.80;;;11.70;;
75297;SDS011;63896;45.990;18.688;2022-11-20T09:33:36;26.90;;;11.77;;
75297;SDS011;63896;45.990;18.688;2022-11-20T09:36:38;25.80;;;11.07;;
75297;SDS011;63896;45.990;18.688;2022-11-20T09:39:41;27.83;;;11.00;;
75297;SDS011;63896;45.990;18.688;2022-11-20T09:52:57;20.58;;;10.23;;
75297;SDS011;63896;45.990;18.688;2022-11-20T09:56:12;27.40;;;10.33;;
75297;SDS011;63896;45.990;18.688;2022-11-20T09:59:26;23.45;;;10.52;;
75297;SDS011;63896;45.990;18.688;2022-11-20T10:06:03;24.85;;;10.23;;
75297;SDS011;63896;45.990;18.688;2022-11-20T10:09:32;24.85;;;10.45;;
75297;SDS011;63896;45.990;18.688;2022-11-20T10:26:02;22.33;;;9.43;;
75297;SDS011;63896;45.990;18.688;2022-11-20T10:29:17;25.07;;;10.30;;
75297;SDS011;63896;45.990;18.688;2022-11-20T10:32:26;27.00;;;11.35;;
75297;SDS011;63896;45.990;18.688;2022-11-20T10:38:59;24.75;;;10.57;;
75297;SDS011;63896;45.990;18.688;2022-11-20T10:42:15;26.23;;;11.77;;
75297;SDS011;63896;45.990;18.688;2022-11-20T10:48:28;28.15;;;12.63;;
75297;SDS011;63896;45.990;18.688;2022-11-20T10:58:25;25.52;;;11.45;;
75297;SDS011;63896;45.990;18.688;2022-11-20T11:01:50;23.97;;;10.53;;
75297;SDS011;63896;45.990;18.688;2022-11-20T11:04:53;23.92;;;10.35;;
75297;SDS011;63896;45.990;18.688;2022-11-20T11:07:56;25.90;;;11.48;;
75297;SDS011;63896;45.990;18.688;2022-11-20T11:11:02;25.15;;;10.88;;
75297;SDS011;63896;45.990;18.688;2022-11-20T11:14:19;30.30;;;13.48;;
75297;SDS011;63896;45.990;18.688;2022-11-20T11:17:25;32.23;;;12.37;;
75297;SDS011;63896;45.990;18.688;2022-11-20T11:20:40;25.38;;;11.50;;
75297;SDS011;63896;45.990;18.688;2022-11-20T11:23:59;32.03;;;13.80;;
75297;SDS011;63896;45.990;18.688;2022-11-20T11:27:24;25.67;;;10.77;;
75297;SDS011;63896;45.990;18.688;2022-11-20T11:30:27;23.08;;;10.02;;
75297;SDS011;63896;45.990;18.688;2022-11-20T11:33:32;24.80;;;10.90;;
75297;SDS011;63896;45.990;18.688;2022-11-20T11:36:38;23.92;;;11.27;;
75297;SDS011;63896;45.990;18.688;2022-11-20T11:39:41;29.38;;;12.25;;
75297;SDS011;63896;45.990;18.688;2022-11-20T11:42:55;27.20;;;11.57;;
75297;SDS011;63896;45.990;18.688;2022-11-20T11:46:00;24.27;;;11.60;;
75297;SDS011;63896;45.990;18.688;2022-11-20T11:52:18;24.73;;;9.75;;
75297;SDS011;63896;45.990;18.688;2022-11-20T11:55:36;20.95;;;9.75;;
75297;SDS011;63896;45.990;18.688;2022-11-20T11:58:48;22.30;;;9.23;;
75297;SDS011;63896;45.990;18.688;2022-11-20T12:01:55;25.00;;;10.95;;
75297;SDS011;63896;45.990;18.688;2022-11-20T12:05:08;18.57;;;9.53;;
75297;SDS011;63896;45.990;18.688;2022-11-20T12:14:48;23.73;;;10.05;;
75297;SDS011;63896;45.990;18.688;2022-11-20T12:17:54;20.95;;;9.70;;
75297;SDS011;63896;45.990;18.688;2022-11-20T13:08:27;24.13;;;9.98;;
75297;SDS011;63896;45.990;18.688;2022-11-20T13:11:46;23.83;;;10.00;;
75297;SDS011;63896;45.990;18.688;2022-11-20T13:18:14;24.85;;;11.00;;
75297;SDS011;63896;45.990;18.688;2022-11-20T13:21:21;24.60;;;10.48;;
75297;SDS011;63896;45.990;18.688;2022-11-20T13:24:37;24.70;;;10.73;;
75297;SDS011;63896;45.990;18.688;2022-11-20T13:27:46;24.77;;;10.40;;
75297;SDS011;63896;45.990;18.688;2022-11-20T13:30:50;22.13;;;10.98;;
75297;SDS011;63896;45.990;18.688;2022-11-20T13:33:55;25.40;;;11.13;;
75297;SDS011;63896;45.990;18.688;2022-11-20T13:36:59;27.58;;;12.23;;
75297;SDS011;63896;45.990;18.688;2022-11-20T13:43:35;28.47;;;11.77;;
75297;SDS011;63896;45.990;18.688;2022-11-20T13:46:45;31.85;;;12.25;;
75297;SDS011;63896;45.990;18.688;2022-11-20T13:49:49;30.48;;;11.32;;
75297;SDS011;63896;45.990;18.688;2022-11-20T13:56:25;23.75;;;10.48;;
75297;SDS011;63896;45.990;18.688;2022-11-20T13:59:57;22.70;;;9.80;;
75297;SDS011;63896;45.990;18.688;2022-11-20T14:03:19;25.00;;;10.55;;
75297;SDS011;63896;45.990;18.688;2022-11-20T14:06:47;22.98;;;10.30;;
75297;SDS011;63896;45.990;18.688;2022-11-20T14:09:52;23.92;;;10.10;;
75297;SDS011;63896;45.990;18.688;2022-11-20T14:12:56;24.15;;;9.93;;
75297;SDS011;63896;45.990;18.688;2022-11-20T14:15:59;24.30;;;10.10;;
75297;SDS011;63896;45.990;18.688;2022-11-20T14:19:36;23.77;;;9.68;;
75297;SDS011;63896;45.990;18.688;2022-11-20T14:22:33;24.23;;;10.48;;
75297;SDS011;63896;45.990;18.688;2022-11-20T14:25:36;28.13;;;11.38;;
75297;SDS011;63896;45.990;18.688;2022-11-20T14:28:39;23.40;;;11.25;;
75297;SDS011;63896;45.990;18.688;2022-11-20T14:31:43;23.30;;;9.97;;
75297;SDS011;63896;45.990;18.688;2022-11-20T14:34:55;23.40;;;10.77;;
75297;SDS011;63896;45.990;18.688;2022-11-20T14:38:04;25.88;;;11.00;;
75297;SDS011;63896;45.990;18.688;2022-11-20T14:41:21;28.05;;;12.43;;
75297;SDS011;63896;45.990;18.688;2022-11-20T14:44:27;30.42;;;12.95;;
75297;SDS011;63896;45.990;18.688;2022-11-20T14:47:33;31.17;;;13.80;;
75297;SDS011;63896;45.990;18.688;2022-11-20T14:50:37;39.40;;;15.88;;
75297;SDS011;63896;45.990;18.688;2022-11-20T14:53:41;31.30;;;13.95;;
75297;SDS011;63896;45.990;18.688;2022-11-20T14:56:53;33.00;;;14.98;;
75297;SDS011;63896;45.990;18.688;2022-11-20T15:00:19;31.63;;;14.13;;
75297;SDS011;63896;45.990;18.688;2022-11-20T15:03:23;32.23;;;14.17;;
75297;SDS011;63896;45.990;18.688;2022-11-20T15:06:33;28.13;;;13.32;;
75297;SDS011;63896;45.990;18.688;2022-11-20T15:09:36;31.52;;;13.63;;
75297;SDS011;63896;45.990;18.688;2022-11-20T15:12:49;34.45;;;13.77;;
75297;SDS011;63896;45.990;18.688;2022-11-20T15:15:55;31.58;;;14.30;;
75297;SDS011;63896;45.990;18.688;2022-11-20T15:18:59;38.53;;;17.53;;
75297;SDS011;63896;45.990;18.688;2022-11-20T15:22:07;46.25;;;21.15;;
75297;SDS011;63896;45.990;18.688;2022-11-20T15:25:16;49.47;;;21.67;;
75297;SDS011;63896;45.990;18.688;2022-11-20T15:28:33;55.83;;;22.65;;
75297;SDS011;63896;45.990;18.688;2022-11-20T15:31:38;45.08;;;20.55;;
75297;SDS011;63896;45.990;18.688;2022-11-20T15:34:46;48.60;;;22.83;;
75297;SDS011;63896;45.990;18.688;2022-11-20T15:37:49;54.30;;;24.92;;
75297;SDS011;63896;45.990;18.688;2022-11-20T15:40:52;50.33;;;23.17;;
75297;SDS011;63896;45.990;18.688;2022-11-20T15:43:55;51.17;;;25.30;;
75297;SDS011;63896;45.990;18.688;2022-11-20T15:46:58;48.50;;;23.85;;
75297;SDS011;63896;45.990;18.688;2022-11-20T15:50:01;50.83;;;22.37;;
75297;SDS011;63896;45.990;18.688;2022-11-20T15:53:05;44.58;;;20.40;;
75297;SDS011;63896;45.990;18.688;2022-11-20T15:56:09;49.03;;;22.05;;
75297;SDS011;63896;45.990;18.688;2022-11-20T15:59:15;50.97;;;23.85;;
75297;SDS011;63896;45.990;18.688;2022-11-20T16:02:18;50.33;;;23.35;;
75297;SDS011;63896;45.990;18.688;2022-11-20T16:05:21;50.07;;;23.47;;
75297;SDS011;63896;45.990;18.688;2022-11-20T16:08:25;47.85;;;22.45;;
75297;SDS011;63896;45.990;18.688;2022-11-20T16:11:28;78.32;;;29.70;;
75297;SDS011;63896;45.990;18.688;2022-11-20T16:14:31;73.03;;;30.92;;
75297;SDS011;63896;45.990;18.688;2022-11-20T16:17:53;68.00;;;28.67;;
75297;SDS011;63896;45.990;18.688;2022-11-20T16:20:56;58.27;;;24.37;;
75297;SDS011;63896;45.990;18.688;2022-11-20T16:24:00;58.15;;;26.15;;
75297;SDS011;63896;45.990;18.688;2022-11-20T16:27:05;61.03;;;25.40;;
75297;SDS011;63896;45.990;18.688;2022-11-20T16:30:08;58.88;;;24.55;;
75297;SDS011;63896;45.990;18.688;2022-11-20T16:33:13;54.03;;;23.70;;
75297;SDS011;63896;45.990;18.688;2022-11-20T16:36:17;56.23;;;22.47;;
75297;SDS011;63896;45.990;18.688;2022-11-20T16:39:21;49.53;;;21.65;;
75297;SDS011;63896;45.990;18.688;2022-11-20T16:42:25;52.78;;;22.83;;
75297;SDS011;63896;45.990;18.688;2022-11-20T16:45:28;56.15;;;25.42;;
75297;SDS011;63896;45.990;18.688;2022-11-20T16:48:35;59.80;;;27.67;;
75297;SDS011;63896;45.990;18.688;2022-11-20T16:51:38;68.43;;;27.90;;
75297;SDS011;63896;45.990;18.688;2022-11-20T16:54:41;60.63;;;25.98;;
75297;SDS011;63896;45.990;18.688;2022-11-20T16:57:44;56.28;;;24.13;;
75297;SDS011;63896;45.990;18.688;2022-11-20T17:00:47;59.58;;;23.63;;
75297;SDS011;63896;45.990;18.688;2022-11-20T17:04:03;49.85;;;21.17;;
75297;SDS011;63896;45.990;18.688;2022-11-20T17:07:07;52.93;;;20.80;;
75297;SDS011;63896;45.990;18.688;2022-11-20T17:10:11;46.38;;;18.88;;
75297;SDS011;63896;45.990;18.688;2022-11-20T17:13:14;57.50;;;24.90;;
75297;SDS011;63896;45.990;18.688;2022-11-20T17:16:18;86.28;;;33.03;;
75297;SDS011;63896;45.990;18.688;2022-11-20T17:19:23;97.95;;;42.90;;
75297;SDS011;63896;45.990;18.688;2022-11-20T17:22:26;135.53;;;58.63;;
75297;SDS011;63896;45.990;18.688;2022-11-20T17:25:31;109.40;;;47.15;;
75297;SDS011;63896;45.990;18.688;2022-11-20T17:28:35;96.38;;;41.83;;
75297;SDS011;63896;45.990;18.688;2022-11-20T17:31:40;79.65;;;32.20;;
75297;SDS011;63896;45.990;18.688;2022-11-20T17:34:44;79.43;;;33.53;;
75297;SDS011;63896;45.990;18.688;2022-11-20T17:37:46;69.30;;;30.03;;
75297;SDS011;63896;45.990;18.688;2022-11-20T17:40:49;69.00;;;30.10;;
75297;SDS011;63896;45.990;18.688;2022-11-20T17:43:53;72.60;;;32.03;;
75297;SDS011;63896;45.990;18.688;2022-11-20T17:47:01;73.28;;;33.22;;
75297;SDS011;63896;45.990;18.688;2022-11-20T17:50:04;70.18;;;29.75;;
75297;SDS011;63896;45.990;18.688;2022-11-20T17:53:07;62.13;;;27.80;;
75297;SDS011;63896;45.990;18.688;2022-11-20T17:56:10;57.28;;;25.20;;
75297;SDS011;63896;45.990;18.688;2022-11-20T17:59:32;59.05;;;26.08;;
75297;SDS011;63896;45.990;18.688;2022-11-20T18:02:36;55.17;;;24.05;;
75297;SDS011;63896;45.990;18.688;2022-11-20T18:05:38;53.53;;;23.98;;
75297;SDS011;63896;45.990;18.688;2022-11-20T18:08:42;45.67;;;21.57;;
75297;SDS011;63896;45.990;18.688;2022-11-20T18:11:45;51.28;;;20.98;;
75297;SDS011;63896;45.990;18.688;2022-11-20T18:14:48;56.88;;;24.00;;
75297;SDS011;63896;45.990;18.688;2022-11-20T18:17:51;53.50;;;22.38;;
75297;SDS011;63896;45.990;18.688;2022-11-20T18:20:54;60.03;;;26.20;;
75297;SDS011;63896;45.990;18.688;2022-11-20T18:23:57;57.63;;;25.87;;
75297;SDS011;63896;45.990;18.688;2022-11-20T18:27:00;54.50;;;24.95;;
75297;SDS011;63896;45.990;18.688;2022-11-20T18:30:05;60.78;;;26.05;;
75297;SDS011;63896;45.990;18.688;2022-11-20T18:33:09;51.10;;;23.17;;
75297;SDS011;63896;45.990;18.688;2022-11-20T18:36:16;50.58;;;22.00;;
75297;SDS011;63896;45.990;18.688;2022-11-20T18:39:20;44.47;;;20.23;;
75297;SDS011;63896;45.990;18.688;2022-11-20T18:42:25;49.17;;;20.70;;
75297;SDS011;63896;45.990;18.688;2022-11-20T18:45:46;50.95;;;21.42;;
75297;SDS011;63896;45.990;18.688;2022-11-20T18:48:50;50.10;;;20.67;;
75297;SDS011;63896;45.990;18.688;2022-11-20T18:51:53;51.17;;;21.42;;
75297;SDS011;63896;45.990;18.688;2022-11-20T18:54:56;45.70;;;20.27;;
75297;SDS011;63896;45.990;18.688;2022-11-20T18:57:59;45.90;;;19.70;;
75297;SDS011;63896;45.990;18.688;2022-11-20T19:01:06;44.33;;;19.30;;
75297;SDS011;63896;45.990;18.688;2022-11-20T19:04:10;42.03;;;18.77;;
75297;SDS011;63896;45.990;18.688;2022-11-20T19:07:15;42.15;;;18.70;;
75297;SDS011;63896;45.990;18.688;2022-11-20T19:10:19;48.53;;;20.33;;
75297;SDS011;63896;45.990;18.688;2022-11-20T19:13:25;48.90;;;20.02;;
75297;SDS011;63896;45.990;18.688;2022-11-20T19:16:32;48.85;;;21.15;;
75297;SDS011;63896;45.990;18.688;2022-11-20T19:19:36;42.38;;;18.98;;
75297;SDS011;63896;45.990;18.688;2022-11-20T19:22:39;45.67;;;18.83;;
75297;SDS011;63896;45.990;18.688;2022-11-20T19:25:42;43.80;;;18.07;;
75297;SDS011;63896;45.990;18.688;2022-11-20T19:28:45;44.72;;;18.40;;
75297;SDS011;63896;45.990;18.688;2022-11-20T19:31:48;45.03;;;19.98;;
75297;SDS011;63896;45.990;18.688;2022-11-20T19:34:52;43.55;;;18.60;;
75297;SDS011;63896;45.990;18.688;2022-11-20T19:37:55;43.95;;;19.42;;
75297;SDS011;63896;45.990;18.688;2022-11-20T19:41:04;44.13;;;17.57;;
75297;SDS011;63896;45.990;18.688;2022-11-20T19:44:11;45.28;;;18.33;;
75297;SDS011;63896;45.990;18.688;2022-11-20T19:47:16;43.13;;;18.67;;